createdAt,value
2018-07-06T00:02:23.150Z,18.80
2018-07-06T00:05:09.578Z,18.90
2018-07-06T00:07:55.964Z,18.90
2018-07-06T00:10:44.384Z,19.00
2018-07-06T00:13:30.648Z,19.00
2018-07-06T00:16:17.142Z,18.90
2018-07-06T00:21:46.972Z,18.90
2018-07-06T00:24:33.398Z,18.90
2018-07-06T00:27:19.808Z,18.90
2018-07-06T00:30:06.160Z,18.90
2018-07-06T00:32:52.441Z,18.90
2018-07-06T00:38:19.299Z,18.90
2018-07-06T00:41:07.753Z,19.00
2018-07-06T00:43:54.338Z,19.00
2018-07-06T00:46:40.701Z,18.90
2018-07-06T00:49:27.042Z,19.00
2018-07-06T00:52:13.454Z,19.00
2018-07-06T00:55:01.753Z,19.00
2018-07-06T00:57:51.589Z,19.00
2018-07-06T01:00:37.947Z,19.00
2018-07-06T01:03:24.405Z,19.10
2018-07-06T01:06:12.885Z,19.00
2018-07-06T01:08:59.337Z,19.10
2018-07-06T01:11:45.641Z,18.90
2018-07-06T01:14:32.126Z,19.00
2018-07-06T01:17:18.396Z,19.00
2018-07-06T01:20:04.784Z,19.10
2018-07-06T01:22:54.376Z,19.00
2018-07-06T01:25:40.929Z,19.10
2018-07-06T01:28:27.246Z,19.20
2018-07-06T01:31:13.585Z,19.20
2018-07-06T01:33:59.981Z,19.20
2018-07-06T01:36:46.449Z,19.10
2018-07-06T01:39:32.793Z,19.10
2018-07-06T01:42:19.331Z,19.10
2018-07-06T01:47:46.062Z,19.10
2018-07-06T01:50:32.396Z,19.10
2018-07-06T01:53:18.987Z,19.20
2018-07-06T01:56:05.441Z,19.20
2018-07-06T01:58:51.981Z,19.30
2018-07-06T02:01:38.497Z,19.10
2018-07-06T02:04:24.908Z,19.00
2018-07-06T02:07:11.166Z,18.90
2018-07-06T02:09:57.668Z,19.00
2018-07-06T02:12:44.016Z,19.00
2018-07-06T02:15:32.377Z,19.00
2018-07-06T02:18:18.749Z,19.10
2018-07-06T02:21:05.206Z,18.90
2018-07-06T02:23:51.578Z,18.80
2018-07-06T02:26:38.047Z,18.90
2018-07-06T02:29:24.409Z,19.00
2018-07-06T02:32:10.798Z,18.90
2018-07-06T02:34:57.185Z,18.90
2018-07-06T02:37:44.657Z,18.70
2018-07-06T02:40:31.072Z,18.40
2018-07-06T02:43:17.500Z,18.50
2018-07-06T02:46:04.022Z,18.60
2018-07-06T02:48:50.266Z,18.60
2018-07-06T02:51:40.459Z,18.70
2018-07-06T02:54:26.919Z,18.80
2018-07-06T02:57:13.257Z,18.80
2018-07-06T02:59:59.765Z,18.60
2018-07-06T03:02:46.165Z,18.80
2018-07-06T03:05:33.517Z,18.70
2018-07-06T03:08:20.044Z,18.50
2018-07-06T03:11:06.447Z,18.60
2018-07-06T03:13:53.084Z,18.60
2018-07-06T03:16:39.454Z,18.70
2018-07-06T03:19:25.885Z,18.80
2018-07-06T03:22:12.222Z,18.60
2018-07-06T03:24:58.603Z,18.60
2018-07-06T03:27:45.115Z,18.40
2018-07-06T03:30:33.648Z,18.20
2018-07-06T03:33:20.022Z,18.40
2018-07-06T03:36:06.613Z,18.50
2018-07-06T03:38:52.858Z,18.40
2018-07-06T03:41:39.317Z,18.30
2018-07-06T03:44:25.594Z,18.40
2018-07-06T03:47:11.925Z,18.40
2018-07-06T03:49:58.197Z,18.40
2018-07-06T03:52:44.767Z,18.50
2018-07-06T03:55:31.239Z,18.40
2018-07-06T03:58:17.669Z,18.60
2018-07-06T04:01:04.140Z,18.30
2018-07-06T04:03:51.590Z,18.30
2018-07-06T04:06:38.034Z,18.40
2018-07-06T04:09:24.440Z,18.50
2018-07-06T04:12:10.808Z,18.40
2018-07-06T04:15:00.442Z,18.40
2018-07-06T04:17:46.913Z,18.30
2018-07-06T04:20:34.354Z,18.30
2018-07-06T04:23:22.716Z,18.30
2018-07-06T04:26:09.345Z,18.40
2018-07-06T04:28:56.709Z,18.30
2018-07-06T04:31:43.199Z,18.30
2018-07-06T04:34:29.510Z,18.20
2018-07-06T04:37:15.962Z,18.30
2018-07-06T04:40:05.583Z,18.30
2018-07-06T04:42:51.991Z,18.40
2018-07-06T04:45:38.302Z,18.40
2018-07-06T04:48:24.737Z,18.50
2018-07-06T04:51:13.462Z,18.60
2018-07-06T04:54:04.570Z,18.60
2018-07-06T04:56:53.076Z,18.80
2018-07-06T04:59:39.323Z,18.80
2018-07-06T05:02:25.808Z,18.80
2018-07-06T05:05:12.239Z,18.60
2018-07-06T05:08:02.442Z,18.70
2018-07-06T05:10:49.019Z,18.80
2018-07-06T05:13:35.478Z,18.90
2018-07-06T05:16:21.886Z,18.90
2018-07-06T05:19:09.382Z,18.80
2018-07-06T05:21:55.974Z,18.80
2018-07-06T05:24:42.266Z,18.80
2018-07-06T05:27:33.202Z,18.80
2018-07-06T05:30:19.654Z,18.90
2018-07-06T05:33:06.130Z,19.00
2018-07-06T05:35:53.701Z,19.00
2018-07-06T05:38:40.086Z,19.10
2018-07-06T05:41:26.606Z,19.20
2018-07-06T05:44:13.084Z,19.20
2018-07-06T05:46:59.443Z,19.20
2018-07-06T05:49:45.868Z,19.30
2018-07-06T05:52:32.330Z,19.30
2018-07-06T05:55:18.650Z,19.40
2018-07-06T05:58:05.082Z,19.40
2018-07-06T06:00:51.482Z,19.50
2018-07-06T06:03:37.938Z,19.60
2018-07-06T06:06:24.503Z,19.60
2018-07-06T06:08:58.458Z,19.70
2018-07-06T06:11:27.758Z,19.80
2018-07-06T06:13:56.989Z,19.90
2018-07-06T06:16:26.267Z,20.00
2018-07-06T06:19:02.239Z,19.90
2018-07-06T06:21:31.473Z,20.00
2018-07-06T06:24:00.725Z,19.90
2018-07-06T06:26:31.389Z,20.10
2018-07-06T06:29:02.806Z,20.20
2018-07-06T06:31:32.176Z,20.30
2018-07-06T06:34:02.743Z,20.40
2018-07-06T06:36:32.591Z,20.40
2018-07-06T06:39:02.323Z,20.40
2018-07-06T06:41:31.671Z,20.50
2018-07-06T06:44:01.045Z,20.50
2018-07-06T06:48:59.223Z,20.90
2018-07-06T06:51:28.534Z,20.90
2018-07-06T06:53:57.866Z,21.00
2018-07-06T06:56:28.302Z,21.20
2018-07-06T06:58:57.734Z,21.20
2018-07-06T07:01:26.988Z,21.10
2018-07-06T07:03:56.353Z,21.00
2018-07-06T07:06:26.741Z,21.00
2018-07-06T07:08:56.077Z,21.10
2018-07-06T07:11:25.345Z,21.30
2018-07-06T07:13:54.664Z,21.50
2018-07-06T07:16:23.934Z,21.80
2018-07-06T07:18:53.229Z,22.10
2018-07-06T07:21:23.527Z,22.00
2018-07-06T07:23:53.969Z,21.70
2018-07-06T07:26:25.316Z,22.00
2018-07-06T07:28:54.689Z,22.50
2018-07-06T07:31:24.040Z,22.40
2018-07-06T07:33:53.357Z,22.60
2018-07-06T07:36:22.669Z,22.70
2018-07-06T07:38:52.041Z,22.30
2018-07-06T07:41:21.401Z,22.00
2018-07-06T07:43:50.687Z,22.00
2018-07-06T07:46:20.819Z,22.00
2018-07-06T07:48:50.067Z,22.20
2018-07-06T07:51:59.478Z,22.70
2018-07-06T07:54:31.819Z,23.00
2018-07-06T07:57:02.144Z,23.40
2018-07-06T07:59:33.266Z,23.70
2018-07-06T08:02:10.649Z,23.60
2018-07-06T08:04:40.363Z,23.90
2018-07-06T08:07:09.721Z,23.70
2018-07-06T08:09:44.835Z,23.30
2018-07-06T08:12:15.167Z,23.30
2018-07-06T08:14:49.339Z,23.30
2018-07-06T08:17:18.596Z,23.40
2018-07-06T08:19:47.838Z,23.50
2018-07-06T08:22:17.093Z,23.70
2018-07-06T08:24:46.329Z,23.50
2018-07-06T08:27:15.878Z,23.70
2018-07-06T08:29:45.337Z,24.20
2018-07-06T08:32:15.990Z,24.10
2018-07-06T08:34:56.568Z,24.40
2018-07-06T08:37:41.535Z,24.60
2018-07-06T08:40:10.774Z,24.50
2018-07-06T08:42:48.685Z,24.10
2018-07-06T08:47:47.378Z,24.10
2018-07-06T08:50:16.679Z,24.10
2018-07-06T08:52:47.084Z,23.90
2018-07-06T08:55:16.586Z,23.90
2018-07-06T08:57:50.218Z,23.90
2018-07-06T09:00:19.479Z,23.70
2018-07-06T09:02:48.749Z,23.70
2018-07-06T09:05:17.980Z,23.80
2018-07-06T09:07:47.254Z,24.10
2018-07-06T09:10:17.493Z,23.70
2018-07-06T09:12:46.749Z,23.70
2018-07-06T09:15:16.003Z,23.80
2018-07-06T09:17:45.264Z,24.10
2018-07-06T09:20:15.704Z,24.40
2018-07-06T09:22:44.909Z,24.40
2018-07-06T09:25:14.207Z,24.50
2018-07-06T09:27:43.485Z,24.80
2018-07-06T09:30:12.746Z,25.20
2018-07-06T09:32:42.035Z,25.00
2018-07-06T09:35:11.295Z,25.30
2018-07-06T09:37:40.533Z,25.80
2018-07-06T09:40:09.979Z,26.00
2018-07-06T09:42:39.181Z,26.10
2018-07-06T09:47:37.259Z,26.20
2018-07-06T09:50:12.227Z,26.30
2018-07-06T09:52:41.466Z,26.40
2018-07-06T09:55:10.718Z,26.30
2018-07-06T09:57:39.973Z,26.30
2018-07-06T10:00:10.967Z,26.00
2018-07-06T10:02:40.218Z,25.80
2018-07-06T10:05:09.531Z,26.20
2018-07-06T10:07:38.773Z,26.60
2018-07-06T10:10:08.103Z,26.20
2018-07-06T10:12:37.411Z,26.40
2018-07-06T10:15:06.655Z,26.90
2018-07-06T10:17:35.874Z,26.10
2018-07-06T10:20:05.170Z,26.40
2018-07-06T10:22:40.302Z,26.70
2018-07-06T10:25:11.598Z,26.50
2018-07-06T10:27:52.961Z,26.80
2018-07-06T10:30:49.326Z,27.00
2018-07-06T10:33:18.602Z,27.30
2018-07-06T10:35:47.849Z,27.30
2018-07-06T10:38:17.066Z,27.50
2018-07-06T10:40:54.669Z,27.70
2018-07-06T10:43:23.999Z,27.80
2018-07-06T10:45:53.559Z,27.50
2018-07-06T10:48:22.930Z,28.00
2018-07-06T10:50:52.223Z,27.70
2018-07-06T10:53:23.553Z,27.60
2018-07-06T10:55:53.921Z,27.10
2018-07-06T10:58:23.188Z,28.00
2018-07-06T11:00:52.559Z,26.40
2018-07-06T11:03:21.861Z,26.60
2018-07-06T11:05:52.141Z,26.40
2018-07-06T11:08:21.370Z,26.90
2018-07-06T11:10:50.642Z,27.70
2018-07-06T11:13:20.998Z,27.90
2018-07-06T11:15:51.246Z,27.20
2018-07-06T11:18:20.598Z,27.70
2018-07-06T11:20:49.834Z,27.80
2018-07-06T11:23:19.077Z,28.50
2018-07-06T11:25:49.377Z,28.50
2018-07-06T11:28:22.684Z,28.90
2018-07-06T11:30:51.938Z,29.20
2018-07-06T11:33:26.785Z,28.00
2018-07-06T11:35:56.012Z,26.70
2018-07-06T11:38:25.265Z,26.80
2018-07-06T11:43:23.317Z,26.50
2018-07-06T11:45:52.565Z,26.90
2018-07-06T11:48:21.861Z,28.10
2018-07-06T11:50:51.078Z,28.70
2018-07-06T11:53:24.721Z,28.40
2018-07-06T11:55:53.984Z,28.00
2018-07-06T11:58:25.663Z,28.20
2018-07-06T12:00:54.885Z,28.50
2018-07-06T12:03:24.162Z,29.10
2018-07-06T12:05:53.451Z,29.30
2018-07-06T12:08:22.744Z,29.40
2018-07-06T12:10:51.966Z,29.60
2018-07-06T12:13:21.645Z,29.20
2018-07-06T12:15:51.627Z,29.70
2018-07-06T12:18:26.737Z,29.90
2018-07-06T12:20:55.961Z,29.80
2018-07-06T12:23:25.266Z,30.30
2018-07-06T12:25:54.506Z,28.40
2018-07-06T12:28:23.746Z,27.90
2018-07-06T12:30:53.071Z,28.10
2018-07-06T12:35:52.206Z,29.30
2018-07-06T12:38:35.982Z,29.10
2018-07-06T12:41:06.389Z,28.90
2018-07-06T12:43:35.646Z,27.70
2018-07-06T12:46:04.929Z,26.90
2018-07-06T12:48:41.112Z,27.10
2018-07-06T12:51:10.381Z,27.70
2018-07-06T12:53:39.663Z,28.00
2018-07-06T12:56:08.936Z,27.50
2018-07-06T12:58:38.339Z,27.80
2018-07-06T13:01:07.562Z,27.80
2018-07-06T13:03:36.820Z,27.90
2018-07-06T13:06:06.116Z,28.00
2018-07-06T13:08:35.410Z,28.70
2018-07-06T13:11:04.679Z,28.40
2018-07-06T13:13:33.912Z,28.30
2018-07-06T13:21:00.785Z,28.30
2018-07-06T13:23:30.018Z,28.90
2018-07-06T13:25:59.483Z,28.40
2018-07-06T13:28:28.695Z,28.30
2018-07-06T13:30:58.000Z,28.40
2018-07-06T13:33:27.284Z,28.90
2018-07-06T13:35:58.637Z,29.20
2018-07-06T13:38:27.914Z,29.00
2018-07-06T13:40:57.286Z,29.00
2018-07-06T13:43:26.534Z,29.00
2018-07-06T13:46:00.243Z,28.60
2018-07-06T13:48:29.733Z,28.60
2018-07-06T13:50:58.992Z,27.80
2018-07-06T13:53:28.386Z,27.20
2018-07-06T13:55:57.736Z,27.20
2018-07-06T13:58:26.985Z,27.70
2018-07-06T14:00:56.213Z,28.40
2018-07-06T14:03:25.518Z,28.50
2018-07-06T14:05:54.752Z,28.90
2018-07-06T14:08:24.007Z,28.90
2018-07-06T14:10:53.274Z,28.90
2018-07-06T14:13:22.559Z,28.70
2018-07-06T14:15:51.810Z,28.50
2018-07-06T14:18:21.082Z,28.60
2018-07-06T14:20:51.370Z,28.50
2018-07-06T14:23:20.626Z,28.50
2018-07-06T14:25:49.886Z,28.40
2018-07-06T14:28:19.161Z,28.30
2018-07-06T14:30:48.398Z,28.00
2018-07-06T14:33:17.665Z,27.90
2018-07-06T14:35:46.913Z,28.20
2018-07-06T14:38:16.169Z,28.00
2018-07-06T14:40:45.441Z,27.80
2018-07-06T14:43:16.730Z,27.90
2018-07-06T14:45:46.008Z,27.70
2018-07-06T14:48:15.255Z,27.70
2018-07-06T14:50:44.495Z,28.00
2018-07-06T14:53:13.752Z,28.10
2018-07-06T14:55:43.030Z,28.40
2018-07-06T14:58:12.284Z,28.20
2018-07-06T15:00:41.547Z,27.70
2018-07-06T15:05:40.137Z,25.40
2018-07-06T15:08:17.073Z,24.80
2018-07-06T15:10:46.489Z,25.50
2018-07-06T15:13:20.639Z,25.80
2018-07-06T15:15:49.825Z,25.50
2018-07-06T15:18:19.117Z,25.90
2018-07-06T15:20:48.426Z,26.10
2018-07-06T15:23:19.755Z,26.30
2018-07-06T15:25:53.141Z,25.90
2018-07-06T15:28:26.878Z,26.20
2018-07-06T15:30:58.241Z,26.40
2018-07-06T15:33:27.510Z,26.70
2018-07-06T15:36:02.486Z,27.00
2018-07-06T15:38:32.778Z,27.10
2018-07-06T15:41:02.047Z,26.90
2018-07-06T15:43:33.365Z,26.90
2018-07-06T15:46:07.094Z,27.10
2018-07-06T15:48:38.487Z,26.90
2018-07-06T15:51:07.879Z,26.90
2018-07-06T15:53:40.749Z,27.10
2018-07-06T15:56:18.437Z,27.20
2018-07-06T16:06:24.598Z,27.30
2018-07-06T16:08:53.880Z,27.20
2018-07-06T16:11:23.232Z,27.20
2018-07-06T16:13:52.479Z,27.10
2018-07-06T16:16:21.718Z,27.00
2018-07-06T16:18:54.572Z,27.10
2018-07-06T16:21:23.817Z,27.20
2018-07-06T16:24:01.045Z,27.30
2018-07-06T16:26:32.349Z,27.30
2018-07-06T16:29:03.661Z,27.30
2018-07-06T16:31:37.182Z,27.20
2018-07-06T16:34:06.399Z,27.20
2018-07-06T16:36:35.761Z,27.00
2018-07-06T16:39:05.504Z,26.70
2018-07-06T16:41:34.809Z,26.80
2018-07-06T16:44:04.144Z,26.70
2018-07-06T16:46:33.346Z,26.60
2018-07-06T16:49:02.579Z,26.60
2018-07-06T16:51:31.851Z,26.40
2018-07-06T16:54:01.074Z,26.30
2018-07-06T16:56:30.363Z,26.10
2018-07-06T16:58:59.626Z,26.30
2018-07-06T17:01:28.880Z,26.20
2018-07-06T17:04:07.737Z,26.10
2018-07-06T17:06:37.201Z,26.10
2018-07-06T17:09:06.797Z,26.30
2018-07-06T17:11:36.064Z,26.20
2018-07-06T17:14:06.308Z,26.20
2018-07-06T17:16:35.545Z,26.30
2018-07-06T17:19:04.831Z,26.10
2018-07-06T17:21:34.149Z,26.30
2018-07-06T17:24:08.148Z,26.30
2018-07-06T17:26:47.455Z,26.20
2018-07-06T17:29:16.677Z,26.00
2018-07-06T17:31:45.934Z,25.80
2018-07-06T17:34:16.174Z,25.80
2018-07-06T17:36:45.441Z,25.70
2018-07-06T17:39:14.788Z,25.60
2018-07-06T17:41:45.199Z,25.60
2018-07-06T17:44:17.652Z,25.70
2018-07-06T17:46:47.004Z,25.50
2018-07-06T17:49:17.368Z,25.50
2018-07-06T17:51:46.773Z,25.30
2018-07-06T17:56:45.837Z,25.30
2018-07-06T17:59:15.133Z,25.20
2018-07-06T18:01:44.455Z,25.20
2018-07-06T18:04:13.780Z,25.00
2018-07-06T18:06:43.073Z,25.10
2018-07-06T18:09:13.418Z,25.10
2018-07-06T18:11:43.722Z,25.00
2018-07-06T18:14:13.113Z,24.90
2018-07-06T18:16:42.382Z,24.90
2018-07-06T18:19:11.705Z,24.60
2018-07-06T18:21:42.239Z,24.50
2018-07-06T18:24:11.651Z,24.50
2018-07-06T18:26:40.906Z,24.40
2018-07-06T18:29:10.167Z,24.30
2018-07-06T18:31:39.492Z,24.30
2018-07-06T18:34:09.870Z,24.30
2018-07-06T18:36:40.169Z,24.20
2018-07-06T18:39:09.495Z,24.20
2018-07-06T18:41:38.819Z,24.20
2018-07-06T18:44:08.110Z,24.20
2018-07-06T18:46:37.379Z,24.30
2018-07-06T18:49:12.049Z,24.20
2018-07-06T18:51:41.342Z,24.10
2018-07-06T18:54:10.789Z,24.20
2018-07-06T18:56:40.069Z,24.20
2018-07-06T18:59:09.298Z,24.10
2018-07-06T19:01:38.652Z,24.10
2018-07-06T19:04:08.043Z,24.00
2018-07-06T19:06:37.432Z,23.90
2018-07-06T19:09:10.216Z,23.80
2018-07-06T19:11:39.513Z,23.60
2018-07-06T19:14:11.888Z,23.60
2018-07-06T19:16:41.144Z,23.60
2018-07-06T19:19:10.418Z,23.60
2018-07-06T19:21:45.365Z,23.40
2018-07-06T19:24:14.715Z,23.20
2018-07-06T19:26:43.990Z,23.40
2018-07-06T19:29:15.252Z,23.30
2018-07-06T19:31:46.633Z,23.20
2018-07-06T19:34:17.003Z,23.00
2018-07-06T19:36:47.280Z,23.00
2018-07-06T19:39:16.548Z,23.20
2018-07-06T19:41:48.066Z,23.10
2018-07-06T19:44:17.302Z,22.80
2018-07-06T19:46:46.578Z,22.80
2018-07-06T19:49:15.847Z,22.80
2018-07-06T19:51:45.181Z,22.60
2018-07-06T19:54:14.448Z,22.40
2018-07-06T19:56:43.833Z,22.50
2018-07-06T19:59:13.091Z,22.60
2018-07-06T20:01:55.058Z,22.00
2018-07-06T20:04:24.348Z,21.90
2018-07-06T20:06:53.620Z,21.90
2018-07-06T20:09:22.871Z,21.80
2018-07-06T20:11:52.144Z,21.70
2018-07-06T20:14:21.368Z,21.60
2018-07-06T20:16:50.627Z,21.60
2018-07-06T20:19:19.919Z,21.30
2018-07-06T20:21:50.193Z,21.00
2018-07-06T20:24:19.474Z,21.30
2018-07-06T20:26:48.741Z,21.00
2018-07-06T20:29:17.979Z,20.90
2018-07-06T20:31:47.244Z,20.70
2018-07-06T20:34:16.489Z,20.80
2018-07-06T20:36:45.760Z,20.50
2018-07-06T20:39:18.761Z,20.40
2018-07-06T20:41:48.057Z,20.40
2018-07-06T20:44:17.299Z,20.30
2018-07-06T20:46:46.914Z,20.20
2018-07-06T20:49:16.585Z,20.10
2018-07-06T20:51:47.157Z,19.70
2018-07-06T20:54:16.787Z,19.80
2018-07-06T20:56:46.095Z,19.60
2018-07-06T20:59:15.342Z,19.70
2018-07-06T21:01:45.638Z,19.60
2018-07-06T21:04:20.774Z,19.60
2018-07-06T21:06:57.202Z,19.50
2018-07-06T21:09:31.752Z,19.40
2018-07-06T21:12:00.999Z,19.10
2018-07-06T21:14:30.260Z,19.20
2018-07-06T21:16:59.504Z,18.90
2018-07-06T21:19:28.757Z,18.70
2018-07-06T21:21:58.096Z,18.60
2018-07-06T21:24:27.370Z,18.40
2018-07-06T21:26:56.670Z,18.50
2018-07-06T21:29:25.893Z,18.30
2018-07-06T21:34:23.929Z,18.30
2018-07-06T21:36:53.174Z,18.40
2018-07-06T21:39:24.504Z,18.40
2018-07-06T21:41:53.797Z,18.30
2018-07-06T21:44:23.057Z,18.00
2018-07-06T21:46:52.326Z,17.70
2018-07-06T21:49:21.618Z,17.80
2018-07-06T21:51:50.910Z,17.80
2018-07-06T21:54:20.198Z,17.80
2018-07-06T21:56:49.454Z,17.80
2018-07-06T21:59:19.793Z,17.70
2018-07-06T22:01:51.049Z,17.60
2018-07-06T22:04:20.420Z,17.80
2018-07-06T22:07:00.107Z,17.60
2018-07-06T22:09:29.362Z,17.50
2018-07-06T22:11:58.591Z,17.20
2018-07-06T22:14:27.867Z,17.10
2018-07-06T22:16:58.126Z,17.20
2018-07-06T22:19:27.357Z,16.90
2018-07-06T22:21:56.729Z,16.90
2018-07-06T22:24:26.370Z,17.00
2018-07-06T22:26:55.604Z,17.00
2018-07-06T22:29:24.897Z,16.90
2018-07-06T22:31:54.147Z,16.90
2018-07-06T22:34:23.382Z,16.90
2018-07-06T22:36:52.649Z,16.70
2018-07-06T22:39:21.902Z,16.50
2018-07-06T22:41:51.241Z,16.40
2018-07-06T22:44:20.500Z,16.40
2018-07-06T22:46:49.776Z,16.50
2018-07-06T22:49:19.048Z,16.50
2018-07-06T22:51:48.311Z,16.60
2018-07-06T22:54:17.621Z,16.50
2018-07-06T22:56:46.901Z,16.30
2018-07-06T22:59:16.174Z,16.20
2018-07-06T23:01:45.481Z,16.20
2018-07-06T23:04:14.729Z,16.20
2018-07-06T23:06:44.045Z,16.20
2018-07-06T23:09:13.293Z,16.40
2018-07-06T23:11:42.552Z,16.20
2018-07-06T23:14:11.835Z,16.00
2018-07-06T23:16:43.129Z,16.00
2018-07-06T23:19:12.370Z,16.10
2018-07-06T23:21:41.653Z,16.00
2018-07-06T23:24:10.891Z,15.70
2018-07-06T23:26:40.216Z,15.30
2018-07-06T23:29:09.470Z,15.10
2018-07-06T23:31:38.759Z,15.10
2018-07-06T23:34:08.017Z,15.10
2018-07-06T23:36:37.416Z,15.20
2018-07-06T23:39:06.736Z,15.30
2018-07-06T23:41:36.006Z,15.10
2018-07-06T23:44:05.450Z,15.20
2018-07-06T23:46:34.739Z,15.20
2018-07-06T23:49:05.082Z,15.20
2018-07-06T23:51:34.360Z,15.20
2018-07-06T23:54:03.654Z,15.10
2018-07-06T23:56:32.920Z,15.00
2018-07-06T23:59:02.370Z,15.00
